Time;durP1;ratioP1;P1;durP2;ratioP2;P2;SDS_P1;SDS_P2;PMS_P1;PMS_P2;Temp;Humidity;BMP_temperature;BMP_pressure;BME280_temperature;BME280_humidity;BME280_pressure;Samples;Min_cycle;Max_cycle;Signal;HPM_P1;HPM_P2
2022/02/28 00:00:39;;;;;;;28.00;14.13;;;-1.60;99.90;;;;;;5014479;28;20464;-74
2022/02/28 00:03:04;;;;;;;25.67;13.97;;;-1.60;99.90;;;;;;5014605;28;20368;-74
2022/02/28 00:05:30;;;;;;;27.77;15.23;;;-1.60;99.90;;;;;;5014417;28;20030;-75
2022/02/28 00:07:56;;;;;;;26.30;15.23;;;-1.60;99.90;;;;;;4996646;28;20129;-74
2022/02/28 00:10:23;;;;;;;28.67;15.27;;;-1.60;99.90;;;;;;5013972;28;20088;-74
2022/02/28 00:12:49;;;;;;;27.10;16.13;;;-1.60;99.90;;;;;;5013992;28;20049;-74
2022/02/28 00:15:17;;;;;;;27.77;15.70;;;-1.60;99.90;;;;;;5014055;28;20498;-75
2022/02/28 00:17:43;;;;;;;26.23;14.77;;;-1.60;99.90;;;;;;5013852;28;20025;-75
2022/02/28 00:20:11;;;;;;;23.83;14.90;;;-1.60;99.90;;;;;;5014031;28;20041;-73
2022/02/28 00:22:39;;;;;;;28.30;14.97;;;-1.70;99.90;;;;;;5013878;28;20022;-75
2022/02/28 00:25:06;;;;;;;29.60;14.87;;;-1.70;99.90;;;;;;5014074;28;20124;-73
2022/02/28 00:27:33;;;;;;;24.60;14.97;;;-1.80;99.90;;;;;;5013474;28;20565;-74
2022/02/28 00:29:58;;;;;;;25.70;15.37;;;-1.80;99.90;;;;;;4996357;28;20382;-74
2022/02/28 00:32:24;;;;;;;27.47;14.60;;;-1.90;99.90;;;;;;5013804;28;20101;-74
2022/02/28 00:34:51;;;;;;;24.53;14.30;;;-2.00;99.90;;;;;;5013987;28;20025;-75
2022/02/28 00:37:17;;;;;;;23.63;13.80;;;-2.00;99.90;;;;;;5013442;28;20475;-74
2022/02/28 00:39:43;;;;;;;22.60;13.03;;;-2.10;99.90;;;;;;5013378;28;20049;-74
2022/02/28 00:42:09;;;;;;;24.80;14.43;;;-2.10;99.90;;;;;;5013766;28;20105;-74
2022/02/28 00:44:35;;;;;;;23.73;14.47;;;-2.20;99.90;;;;;;5014117;28;20214;-74
2022/02/28 00:47:01;;;;;;;23.50;14.43;;;-2.20;99.90;;;;;;4995948;28;20030;-74
2022/02/28 00:49:26;;;;;;;23.67;13.73;;;-2.30;99.90;;;;;;5013508;28;20049;-74
2022/02/28 00:51:52;;;;;;;26.77;14.93;;;-2.30;99.90;;;;;;5013301;28;20022;-74
2022/02/28 00:54:17;;;;;;;24.83;14.17;;;-2.30;99.90;;;;;;5013635;28;20177;-75
2022/02/28 00:56:43;;;;;;;26.97;14.13;;;-2.30;99.90;;;;;;4995359;28;20018;-74
2022/02/28 00:59:09;;;;;;;26.87;14.93;;;-2.30;99.90;;;;;;5013070;28;20026;-75
2022/02/28 01:01:35;;;;;;;27.07;15.67;;;-2.30;99.90;;;;;;5013224;28;20115;-75
2022/02/28 01:04:01;;;;;;;28.83;15.03;;;-2.30;99.90;;;;;;5013632;28;20026;-74
2022/02/28 01:06:27;;;;;;;25.37;15.13;;;-2.30;99.90;;;;;;5013424;28;20041;-75
2022/02/28 01:08:53;;;;;;;28.47;15.20;;;-2.40;99.90;;;;;;5013120;28;20029;-75
2022/02/28 01:11:18;;;;;;;30.73;16.67;;;-2.40;99.90;;;;;;4995471;28;20030;-74
2022/02/28 01:13:44;;;;;;;25.43;14.53;;;-2.40;99.90;;;;;;5013036;28;20021;-74
2022/02/28 01:16:10;;;;;;;25.87;15.57;;;-2.40;99.90;;;;;;5013486;28;20030;-74
2022/02/28 01:18:36;;;;;;;28.73;14.47;;;-2.40;99.90;;;;;;4995789;28;20029;-74
2022/02/28 01:21:01;;;;;;;25.50;14.53;;;-2.40;99.90;;;;;;5013489;28;20072;-74
2022/02/28 01:23:27;;;;;;;26.33;15.40;;;-2.30;99.90;;;;;;5013394;28;20068;-74
2022/02/28 01:25:52;;;;;;;24.77;15.33;;;-2.30;99.90;;;;;;4995441;28;20459;-74
2022/02/28 01:28:18;;;;;;;26.03;14.47;;;-2.40;99.90;;;;;;5012982;28;20022;-74
2022/02/28 01:30:44;;;;;;;27.00;15.43;;;-2.40;99.90;;;;;;4995467;28;20433;-74
2022/02/28 01:33:09;;;;;;;24.23;14.70;;;-2.40;99.90;;;;;;4995440;28;20104;-74
2022/02/28 01:35:35;;;;;;;25.27;14.57;;;-2.40;99.90;;;;;;4995327;28;20032;-74
2022/02/28 01:38:01;;;;;;;21.77;12.87;;;-2.40;99.90;;;;;;4995248;28;20442;-74
2022/02/28 01:40:27;;;;;;;25.03;14.20;;;-2.40;99.90;;;;;;5012766;28;20533;-74
2022/02/28 01:42:52;;;;;;;30.63;15.00;;;-2.40;99.90;;;;;;4995284;28;20378;-74
2022/02/28 01:45:23;;;;;;;24.67;14.40;;;-2.40;99.90;;;;;;5012915;28;20037;-74
2022/02/28 01:47:51;;;;;;;25.93;14.17;;;-2.40;99.90;;;;;;5012696;28;20037;-74
2022/02/28 01:50:17;;;;;;;28.57;13.93;;;-2.30;99.90;;;;;;5012850;28;20026;-74
2022/02/28 01:52:45;;;;;;;22.03;12.93;;;-2.20;99.90;;;;;;5012837;28;20451;-74
2022/02/28 01:55:12;;;;;;;24.90;13.30;;;-2.20;99.90;;;;;;5012836;28;20060;-75
2022/02/28 01:57:38;;;;;;;22.63;13.70;;;-2.30;99.90;;;;;;5013044;28;20519;-74
2022/02/28 02:00:08;;;;;;;24.53;14.43;;;-2.30;99.90;;;;;;5013013;28;20026;-74
2022/02/28 02:02:33;;;;;;;28.23;14.53;;;-2.30;99.90;;;;;;5012736;28;20046;-74
2022/02/28 02:04:59;;;;;;;25.00;13.73;;;-2.40;99.90;;;;;;5012608;28;20057;-74
2022/02/28 02:07:25;;;;;;;24.83;14.07;;;-2.40;99.90;;;;;;5012917;28;20109;-74
2022/02/28 02:09:50;;;;;;;25.40;13.63;;;-2.40;99.90;;;;;;5015113;28;20026;-75
2022/02/28 02:12:16;;;;;;;24.53;14.17;;;-2.40;99.90;;;;;;5016594;28;20156;-74
2022/02/28 02:14:42;;;;;;;24.20;13.83;;;-2.40;99.90;;;;;;5016633;28;20091;-75
2022/02/28 02:17:08;;;;;;;21.33;13.37;;;-2.40;99.90;;;;;;4998553;28;20033;-74
2022/02/28 02:19:36;;;;;;;23.90;14.80;;;-2.40;99.90;;;;;;5016147;28;20022;-75
2022/02/28 02:22:02;;;;;;;23.47;13.13;;;-2.40;99.90;;;;;;4998493;28;20026;-74
2022/02/28 02:24:28;;;;;;;22.73;13.13;;;-2.40;99.90;;;;;;5016614;28;20030;-75
2022/02/28 02:26:53;;;;;;;25.47;14.30;;;-2.40;99.90;;;;;;4998414;28;20113;-74
2022/02/28 02:29:19;;;;;;;22.03;14.33;;;-2.50;99.90;;;;;;5015989;28;20033;-74
2022/02/28 02:31:44;;;;;;;24.77;14.40;;;-2.60;99.90;;;;;;5016267;28;20111;-74
2022/02/28 02:34:10;;;;;;;20.40;12.97;;;-2.50;99.90;;;;;;4998832;28;20032;-74
2022/02/28 02:36:39;;;;;;;28.30;15.13;;;-2.50;99.90;;;;;;5016259;28;20129;-74
2022/02/28 02:39:04;;;;;;;23.57;14.33;;;-2.50;99.90;;;;;;5015693;28;20056;-74
2022/02/28 02:41:30;;;;;;;29.97;15.37;;;-2.60;99.90;;;;;;4998102;28;20065;-74
2022/02/28 02:43:55;;;;;;;25.67;14.63;;;-2.60;99.90;;;;;;5015817;28;20022;-74
2022/02/28 02:46:21;;;;;;;25.27;15.07;;;-2.70;99.90;;;;;;5015984;28;20058;-74
2022/02/28 02:48:46;;;;;;;22.87;14.17;;;-2.80;99.90;;;;;;5015640;28;20045;-75
2022/02/28 02:51:12;;;;;;;25.33;15.23;;;-2.80;99.90;;;;;;5015656;28;20032;-75
2022/02/28 02:53:38;;;;;;;29.40;15.10;;;-2.90;99.90;;;;;;5015595;28;20104;-75
2022/02/28 02:56:04;;;;;;;24.20;14.47;;;-2.90;99.90;;;;;;5015804;28;20525;-74
2022/02/28 02:58:29;;;;;;;31.13;15.73;;;-2.90;99.90;;;;;;5015497;28;20096;-74
2022/02/28 03:00:55;;;;;;;29.50;15.33;;;-3.00;99.90;;;;;;4997861;28;20026;-74
2022/02/28 03:03:22;;;;;;;26.97;15.87;;;-2.90;99.90;;;;;;5015837;28;20029;-74
2022/02/28 03:05:49;;;;;;;27.03;15.90;;;-3.00;99.90;;;;;;4997688;28;20045;-75
2022/02/28 03:08:16;;;;;;;28.47;15.07;;;-3.00;99.90;;;;;;5015690;28;20026;-75
2022/02/28 03:10:42;;;;;;;23.67;14.87;;;-3.00;99.90;;;;;;5015310;28;20483;-75
2022/02/28 03:13:07;;;;;;;27.90;14.57;;;-2.90;99.90;;;;;;4997975;28;20104;-75
2022/02/28 03:15:33;;;;;;;30.20;15.03;;;-3.00;99.90;;;;;;5015210;28;20021;-75
2022/02/28 03:17:59;;;;;;;29.60;14.27;;;-3.00;99.90;;;;;;5015545;28;20018;-75
2022/02/28 03:20:24;;;;;;;24.33;13.90;;;-3.00;99.90;;;;;;5014360;28;20106;-75
2022/02/28 03:22:50;;;;;;;22.13;13.00;;;-2.90;99.90;;;;;;5015201;28;20026;-74
2022/02/28 03:25:16;;;;;;;23.90;13.60;;;-2.90;99.90;;;;;;5014987;28;20064;-74
2022/02/28 03:27:41;;;;;;;21.50;13.40;;;-2.90;99.90;;;;;;4997380;28;20029;-75
2022/02/28 03:30:08;;;;;;;26.83;14.17;;;-2.90;99.90;;;;;;5014906;28;20026;-75
2022/02/28 03:32:34;;;;;;;24.77;14.27;;;-2.90;99.90;;;;;;4997779;28;20415;-75
2022/02/28 03:35:00;;;;;;;26.13;14.60;;;-2.90;99.90;;;;;;5015593;28;20022;-75
2022/02/28 03:37:25;;;;;;;21.73;13.43;;;-2.90;99.90;;;;;;5014653;28;20472;-75
2022/02/28 03:39:51;;;;;;;25.67;13.23;;;-3.00;99.90;;;;;;5014750;28;20042;-75
2022/02/28 03:42:17;;;;;;;24.87;13.80;;;-3.00;99.90;;;;;;5014736;28;20025;-75
2022/02/28 03:44:42;;;;;;;22.13;14.10;;;-3.00;99.90;;;;;;5014594;28;20464;-75
2022/02/28 03:47:08;;;;;;;26.57;15.00;;;-3.00;99.90;;;;;;4996924;28;20022;-74
2022/02/28 03:49:34;;;;;;;27.57;14.30;;;-3.00;99.90;;;;;;4996897;28;20033;-75
2022/02/28 03:51:59;;;;;;;23.40;13.87;;;-3.00;99.90;;;;;;5014689;28;20030;-75
2022/02/28 03:54:25;;;;;;;26.53;14.07;;;-3.00;99.90;;;;;;5014266;28;20383;-75
2022/02/28 03:56:51;;;;;;;22.83;13.30;;;-3.00;99.90;;;;;;5014537;28;20028;-75
2022/02/28 03:59:17;;;;;;;24.40;14.23;;;-3.00;99.90;;;;;;5014754;28;20029;-75
2022/02/28 04:01:42;;;;;;;22.97;13.97;;;-3.00;99.90;;;;;;5014308;28;20101;-75
2022/02/28 04:04:10;;;;;;;23.50;13.57;;;-3.10;99.90;;;;;;5014553;28;20032;-75
2022/02/28 04:06:36;;;;;;;23.67;14.70;;;-3.10;99.90;;;;;;5014278;28;20034;-75
2022/02/28 04:09:04;;;;;;;21.30;13.27;;;-3.10;99.90;;;;;;5014038;28;20030;-75
2022/02/28 04:11:30;;;;;;;25.47;14.13;;;-3.10;99.90;;;;;;5014123;28;20028;-75
2022/02/28 04:13:56;;;;;;;27.80;14.33;;;-3.10;99.90;;;;;;5013906;28;20101;-75
2022/02/28 04:16:22;;;;;;;27.50;15.43;;;-3.20;99.90;;;;;;5013983;28;20424;-75
2022/02/28 04:18:47;;;;;;;25.97;15.50;;;-3.20;99.90;;;;;;5014080;28;20025;-75
2022/02/28 04:21:13;;;;;;;23.20;14.57;;;-3.20;99.90;;;;;;5013844;28;20053;-74
2022/02/28 04:23:38;;;;;;;24.23;14.23;;;-3.20;99.90;;;;;;4996368;28;20080;-75
2022/02/28 04:26:04;;;;;;;29.43;14.83;;;-3.30;99.90;;;;;;5013834;28;20406;-74
2022/02/28 04:28:30;;;;;;;24.83;15.20;;;-3.30;99.90;;;;;;5013887;28;20026;-75
2022/02/28 04:30:55;;;;;;;30.83;17.40;;;-3.30;99.90;;;;;;5014003;28;20056;-75
2022/02/28 04:33:21;;;;;;;28.03;16.57;;;-3.30;99.90;;;;;;5014343;28;20363;-75
2022/02/28 04:35:47;;;;;;;28.67;15.47;;;-3.30;99.90;;;;;;5014241;28;20018;-75
2022/02/28 04:38:12;;;;;;;26.90;18.47;;;-3.30;99.90;;;;;;5014537;28;20067;-75
2022/02/28 04:40:38;;;;;;;30.10;18.33;;;-3.30;99.90;;;;;;4996454;28;20091;-75
2022/02/28 04:43:04;;;;;;;27.43;14.87;;;-3.30;99.90;;;;;;4996458;28;20033;-75
2022/02/28 04:45:30;;;;;;;24.67;14.67;;;-3.30;99.90;;;;;;5014078;28;20026;-75
2022/02/28 04:47:55;;;;;;;24.63;14.90;;;-3.30;99.90;;;;;;5014646;28;20045;-74
2022/02/28 04:50:21;;;;;;;25.80;14.20;;;-3.40;99.90;;;;;;5014187;28;20387;-75
2022/02/28 04:52:47;;;;;;;27.33;15.27;;;-3.40;99.90;;;;;;5014083;28;20414;-74
2022/02/28 04:55:12;;;;;;;27.73;15.83;;;-3.40;99.90;;;;;;5014086;28;20026;-75
2022/02/28 04:57:40;;;;;;;25.93;15.10;;;-3.40;99.90;;;;;;5013890;28;20022;-75
2022/02/28 05:00:08;;;;;;;25.87;15.00;;;-3.50;99.90;;;;;;5014267;28;20030;-75
2022/02/28 05:02:34;;;;;;;24.70;14.37;;;-3.50;99.90;;;;;;5013751;28;20022;-75
2022/02/28 05:05:00;;;;;;;26.77;14.43;;;-3.50;99.90;;;;;;5013790;28;20021;-75
2022/02/28 05:07:27;;;;;;;25.40;14.47;;;-3.50;99.90;;;;;;5013449;28;20049;-75
2022/02/28 05:09:52;;;;;;;29.03;14.50;;;-3.50;99.90;;;;;;5013290;28;20026;-75
2022/02/28 05:12:18;;;;;;;26.50;14.50;;;-3.50;99.90;;;;;;4995608;28;20537;-75
2022/02/28 05:14:43;;;;;;;24.73;15.00;;;-3.60;99.90;;;;;;5013151;28;20450;-74
2022/02/28 05:17:09;;;;;;;27.97;14.83;;;-3.60;99.90;;;;;;5013272;28;20018;-74
2022/02/28 05:19:34;;;;;;;26.53;14.40;;;-3.60;99.90;;;;;;5012842;28;20049;-74
2022/02/28 05:22:03;;;;;;;30.17;16.07;;;-3.60;99.90;;;;;;5013062;28;20061;-74
2022/02/28 05:24:30;;;;;;;27.83;14.40;;;-3.70;99.90;;;;;;5013014;28;20056;-79
2022/02/28 05:26:55;;;;;;;31.37;16.30;;;-3.70;99.90;;;;;;4994405;28;20029;-79
2022/02/28 05:29:21;;;;;;;30.50;14.47;;;-3.80;99.90;;;;;;4992023;28;20022;-79
2022/02/28 05:31:46;;;;;;;35.20;15.13;;;-3.80;99.90;;;;;;5009415;28;20096;-79
2022/02/28 05:34:12;;;;;;;26.33;15.50;;;-3.90;99.90;;;;;;5008976;28;20056;-80
2022/02/28 05:36:38;;;;;;;29.00;15.10;;;-3.90;99.90;;;;;;5009537;28;20037;-80
2022/02/28 05:39:03;;;;;;;25.63;14.53;;;-3.90;99.90;;;;;;5009009;28;20088;-79
2022/02/28 05:41:29;;;;;;;24.90;15.27;;;-3.90;99.90;;;;;;5009320;28;20037;-80
2022/02/28 05:43:55;;;;;;;24.37;15.03;;;-3.90;99.90;;;;;;5010449;28;20470;-80
2022/02/28 05:46:20;;;;;;;28.67;15.67;;;-4.00;99.90;;;;;;5007889;28;20033;-81
2022/02/28 05:48:46;;;;;;;32.37;16.70;;;-4.00;99.90;;;;;;5012330;28;20032;-81
2022/02/28 05:51:12;;;;;;;30.60;15.50;;;-4.00;99.90;;;;;;5013186;28;20143;-79
2022/02/28 05:53:37;;;;;;;28.83;15.07;;;-4.00;99.90;;;;;;5012856;28;20438;-79
2022/02/28 05:56:03;;;;;;;25.93;14.30;;;-4.00;99.90;;;;;;4995501;28;20022;-79
2022/02/28 05:58:29;;;;;;;28.03;14.50;;;-4.00;99.90;;;;;;5012596;28;20030;-79
2022/02/28 06:00:54;;;;;;;30.33;15.10;;;-4.10;99.90;;;;;;5013387;28;20022;-79
2022/02/28 06:03:20;;;;;;;24.67;14.23;;;-4.10;99.90;;;;;;5012960;28;20112;-79
2022/02/28 06:05:46;;;;;;;28.00;14.83;;;-4.10;99.90;;;;;;5012203;28;20034;-79
2022/02/28 06:08:11;;;;;;;36.27;15.67;;;-4.20;99.90;;;;;;5012923;28;20033;-79
2022/02/28 06:10:37;;;;;;;28.33;14.57;;;-4.30;99.90;;;;;;4994780;28;20084;-79
2022/02/28 06:13:02;;;;;;;26.50;15.50;;;-4.20;99.90;;;;;;4992595;28;20042;-79
2022/02/28 06:15:28;;;;;;;29.27;15.30;;;-4.30;99.90;;;;;;4991167;28;21712;-79
2022/02/28 06:17:54;;;;;;;30.97;16.20;;;-4.30;99.90;;;;;;5006880;28;20033;-79
2022/02/28 06:20:19;;;;;;;29.70;16.87;;;-4.30;99.90;;;;;;5012560;28;20018;-79
2022/02/28 06:22:45;;;;;;;30.60;16.80;;;-4.30;99.90;;;;;;5013733;28;20025;-80
2022/02/28 06:25:10;;;;;;;35.27;17.87;;;-4.30;99.90;;;;;;4994508;28;20386;-81
2022/02/28 06:27:36;;;;;;;28.87;16.80;;;-4.30;99.90;;;;;;5013041;28;20030;-81
2022/02/28 06:30:02;;;;;;;31.93;17.57;;;-4.20;99.90;;;;;;5012057;28;20767;-81
2022/02/28 06:32:28;;;;;;;30.97;18.33;;;-4.20;99.90;;;;;;4999146;28;20026;-81
2022/02/28 06:34:55;;;;;;;34.67;17.73;;;-4.20;99.90;;;;;;5020199;28;20385;-76
2022/02/28 06:37:21;;;;;;;36.87;18.13;;;-4.10;99.90;;;;;;4998366;28;20022;-76
2022/02/28 06:39:46;;;;;;;29.73;16.63;;;-4.10;99.90;;;;;;4975749;28;20047;-76
2022/02/28 06:42:12;;;;;;;33.10;17.23;;;-4.00;99.90;;;;;;4976587;28;20424;-75
2022/02/28 06:44:37;;;;;;;29.63;16.50;;;-4.00;99.90;;;;;;4978907;28;20035;-80
2022/02/28 06:47:04;;;;;;;27.83;16.47;;;-3.90;99.90;;;;;;4992982;28;20062;-75
2022/02/28 06:49:29;;;;;;;28.47;16.77;;;-3.90;99.90;;;;;;4995735;28;20026;-75
2022/02/28 06:51:55;;;;;;;31.03;16.93;;;-3.80;99.90;;;;;;4996086;28;20040;-75
2022/02/28 06:54:21;;;;;;;30.70;18.03;;;-3.80;99.90;;;;;;4996052;28;20034;-74
2022/02/28 06:56:46;;;;;;;35.93;18.57;;;-3.70;99.90;;;;;;4994789;28;20072;-75
2022/02/28 06:59:12;;;;;;;33.77;18.40;;;-3.60;99.90;;;;;;4995755;28;20030;-75
2022/02/28 07:01:38;;;;;;;34.73;18.93;;;-3.60;99.90;;;;;;4995908;28;20114;-75
2022/02/28 07:04:03;;;;;;;28.70;18.37;;;-3.50;99.90;;;;;;4996246;28;20058;-75
2022/02/28 07:06:29;;;;;;;33.77;17.93;;;-3.50;99.90;;;;;;4995770;28;20026;-75
2022/02/28 07:08:55;;;;;;;39.70;19.33;;;-3.40;99.90;;;;;;4995714;28;20026;-75
2022/02/28 07:11:21;;;;;;;38.07;18.70;;;-3.30;99.90;;;;;;4995648;28;20022;-76
2022/02/28 07:13:47;;;;;;;33.20;17.13;;;-3.20;99.90;;;;;;4994270;28;20026;-76
2022/02/28 07:16:15;;;;;;;33.43;18.13;;;-3.10;99.90;;;;;;4995807;28;20022;-75
2022/02/28 07:18:40;;;;;;;31.77;17.20;;;-3.00;99.90;;;;;;4995078;28;20415;-74
2022/02/28 07:21:06;;;;;;;32.17;16.63;;;-2.90;99.90;;;;;;4995011;28;20026;-74
2022/02/28 07:23:31;;;;;;;27.83;15.90;;;-2.80;99.90;;;;;;4988193;28;20101;-75
2022/02/28 07:25:57;;;;;;;30.30;16.63;;;-2.70;99.90;;;;;;4995682;28;20025;-74
2022/02/28 07:28:23;;;;;;;31.17;15.57;;;-2.60;99.90;;;;;;4996104;28;20477;-74
2022/02/28 07:30:48;;;;;;;24.90;15.10;;;-2.40;99.90;;;;;;4995504;28;20428;-75
2022/02/28 07:33:14;;;;;;;32.40;15.17;;;-2.30;99.90;;;;;;4996238;28;20022;-73
2022/02/28 07:35:40;;;;;;;27.30;15.43;;;-2.10;99.90;;;;;;4995168;28;20033;-74
2022/02/28 07:38:06;;;;;;;25.73;16.00;;;-2.00;99.90;;;;;;4995354;28;20387;-74
2022/02/28 07:40:31;;;;;;;26.47;15.47;;;-1.90;99.90;;;;;;5008965;28;20483;-74
2022/02/28 07:42:57;;;;;;;26.60;15.43;;;-1.70;99.90;;;;;;5014736;28;20033;-74
2022/02/28 07:45:23;;;;;;;25.27;15.20;;;-1.60;99.90;;;;;;4990590;28;20022;-74
2022/02/28 07:47:49;;;;;;;26.27;15.03;;;-1.50;99.90;;;;;;5014794;28;20022;-74
2022/02/28 07:50:14;;;;;;;28.23;15.10;;;-1.40;99.90;;;;;;5014750;28;20383;-74
2022/02/28 07:52:40;;;;;;;24.70;14.37;;;-1.10;99.90;;;;;;5003527;28;20076;-74
2022/02/28 07:55:06;;;;;;;26.23;15.97;;;-0.90;99.90;;;;;;5014252;28;20026;-74
2022/02/28 07:57:32;;;;;;;22.37;13.83;;;-0.80;99.90;;;;;;5014078;28;20028;-74
2022/02/28 07:59:58;;;;;;;25.33;14.57;;;-0.60;99.90;;;;;;5014408;28;20104;-74
2022/02/28 08:02:25;;;;;;;23.47;14.40;;;-0.30;99.90;;;;;;5014697;28;20028;-75
2022/02/28 08:04:51;;;;;;;27.03;15.27;;;-0.10;99.90;;;;;;4997765;28;20048;-75
2022/02/28 08:07:16;;;;;;;28.07;16.23;;;0.10;99.90;;;;;;5013988;28;20058;-75
2022/02/28 08:09:42;;;;;;;26.80;15.60;;;0.00;99.90;;;;;;4996938;28;20045;-75
2022/02/28 08:12:08;;;;;;;30.50;15.10;;;0.20;99.90;;;;;;5014179;28;20371;-75
2022/02/28 08:14:33;;;;;;;27.93;16.93;;;0.30;99.90;;;;;;5014259;28;20034;-75
2022/02/28 08:16:59;;;;;;;27.63;17.20;;;0.20;99.90;;;;;;5014187;28;20447;-74
2022/02/28 08:19:24;;;;;;;34.90;15.63;;;0.20;99.90;;;;;;5014489;28;20026;-74
2022/02/28 08:21:50;;;;;;;30.07;16.67;;;0.30;99.90;;;;;;4996512;28;20044;-75
2022/02/28 08:24:17;;;;;;;27.10;15.60;;;0.30;99.90;;;;;;5014293;28;20478;-74
2022/02/28 08:26:43;;;;;;;31.40;16.40;;;0.60;99.90;;;;;;5008002;28;20119;-76
2022/02/28 08:29:09;;;;;;;28.43;16.30;;;0.70;99.90;;;;;;5012494;28;20494;-76
2022/02/28 08:31:34;;;;;;;36.37;17.40;;;0.80;99.90;;;;;;4998219;28;20034;-76
2022/02/28 08:34:00;;;;;;;26.43;15.37;;;0.80;99.90;;;;;;5011540;28;20034;-75
2022/02/28 08:36:26;;;;;;;27.37;17.03;;;1.10;99.90;;;;;;5011823;28;20100;-75
2022/02/28 08:38:51;;;;;;;31.73;17.30;;;1.20;99.90;;;;;;4992939;28;20033;-75
2022/02/28 08:41:17;;;;;;;28.00;16.47;;;1.30;99.90;;;;;;5011114;28;20831;-76
2022/02/28 08:43:43;;;;;;;28.17;16.50;;;1.30;99.90;;;;;;5011997;28;20030;-76
2022/02/28 08:46:09;;;;;;;28.83;15.23;;;1.50;99.90;;;;;;5005827;28;20026;-76
2022/02/28 08:48:35;;;;;;;32.10;16.23;;;1.80;99.90;;;;;;5011264;28;20113;-76
2022/02/28 08:51:01;;;;;;;27.60;16.77;;;1.70;99.90;;;;;;5010793;28;20422;-76
2022/02/28 08:53:27;;;;;;;27.40;15.37;;;1.90;99.90;;;;;;4993132;28;20068;-76
2022/02/28 08:55:52;;;;;;;28.20;15.50;;;2.00;99.90;;;;;;5011240;28;20018;-76
2022/02/28 08:58:18;;;;;;;25.97;15.73;;;2.30;99.90;;;;;;5011093;28;20475;-76
2022/02/28 09:00:44;;;;;;;26.97;18.10;;;2.30;99.90;;;;;;5011751;28;20106;-75
2022/02/28 09:03:09;;;;;;;27.83;16.37;;;2.30;99.90;;;;;;4993701;28;20026;-76
2022/02/28 09:05:36;;;;;;;32.80;15.63;;;2.50;99.90;;;;;;5010791;28;20060;-76
2022/02/28 09:08:01;;;;;;;24.13;15.80;;;2.90;99.90;;;;;;4993101;28;20384;-76
2022/02/28 09:10:27;;;;;;;24.20;14.37;;;3.10;99.90;;;;;;5011343;28;20030;-76
2022/02/28 09:12:53;;;;;;;23.03;13.77;;;3.30;99.90;;;;;;5008147;28;20399;-76
2022/02/28 09:15:19;;;;;;;26.13;16.13;;;3.50;99.90;;;;;;4992245;28;20037;-76
2022/02/28 09:17:45;;;;;;;34.20;18.27;;;3.50;99.90;;;;;;4974550;28;20377;-76
2022/02/28 09:20:11;;;;;;;20.83;13.73;;;3.90;99.90;;;;;;4992026;28;20049;-76
2022/02/28 09:22:37;;;;;;;23.83;13.60;;;3.80;99.90;;;;;;4977426;28;20026;-76
2022/02/28 09:25:03;;;;;;;23.27;13.80;;;4.20;99.90;;;;;;4994280;28;20033;-76
2022/02/28 09:27:29;;;;;;;25.37;13.33;;;4.20;99.90;;;;;;4994258;28;20418;-76
2022/02/28 09:29:54;;;;;;;22.57;12.83;;;4.40;99.90;;;;;;4989624;28;20037;-81
2022/02/28 09:32:20;;;;;;;30.23;14.27;;;4.50;99.90;;;;;;5007254;28;20100;-81
2022/02/28 09:34:46;;;;;;;24.77;13.50;;;4.40;99.90;;;;;;5007350;28;20033;-81
2022/02/28 09:37:11;;;;;;;21.93;13.40;;;4.40;99.90;;;;;;5007195;28;20104;-81
2022/02/28 09:39:37;;;;;;;25.40;12.67;;;4.30;99.90;;;;;;5007095;28;20056;-81
2022/02/28 09:42:04;;;;;;;19.40;12.90;;;4.50;99.90;;;;;;5007131;28;20080;-81
2022/02/28 09:44:31;;;;;;;19.50;13.13;;;4.80;99.90;;;;;;4987954;28;20074;-80
2022/02/28 09:46:58;;;;;;;19.20;12.63;;;4.80;99.90;;;;;;4978975;28;20176;-81
2022/02/28 09:49:24;;;;;;;21.37;12.07;;;4.90;99.90;;;;;;5006757;28;20038;-80
2022/02/28 09:51:50;;;;;;;21.53;13.50;;;4.90;99.90;;;;;;4988667;28;20053;-82
2022/02/28 09:54:15;;;;;;;23.53;12.90;;;4.90;99.90;;;;;;5006952;28;20108;-82
2022/02/28 09:56:41;;;;;;;19.40;12.17;;;5.20;99.90;;;;;;4985857;28;20026;-82
2022/02/28 09:59:07;;;;;;;18.73;12.37;;;5.10;99.90;;;;;;5005308;28;20084;-80
2022/02/28 10:01:32;;;;;;;23.33;14.13;;;5.40;99.90;;;;;;5006706;28;20558;-81
2022/02/28 10:03:58;;;;;;;22.80;14.27;;;5.90;99.90;;;;;;5006552;28;20399;-80
2022/02/28 10:06:24;;;;;;;22.90;13.20;;;6.20;99.90;;;;;;4988870;28;20030;-80
2022/02/28 10:08:52;;;;;;;21.90;13.00;;;6.00;99.90;;;;;;5006606;28;20414;-81
2022/02/28 10:11:32;;;;;;;19.20;12.87;;;6.00;99.90;;;;;;5007145;28;20133;-81
2022/02/28 10:14:00;;;;;;;19.80;12.67;;;6.20;99.90;;;;;;5006495;28;20379;-81
2022/02/28 10:16:44;;;;;;;17.17;11.40;;;6.50;99.90;;;;;;5007028;28;20037;-81
2022/02/28 10:19:20;;;;;;;19.23;11.67;;;6.50;99.90;;;;;;5010296;28;20109;-75
2022/02/28 10:21:50;;;;;;;21.37;12.03;;;7.20;99.90;;;;;;5012933;28;20030;-75
2022/02/28 10:24:38;;;;;;;19.53;12.03;;;7.10;99.90;;;;;;5011476;28;20056;-76
2022/02/28 10:27:05;;;;;;;16.10;11.13;;;6.60;99.90;;;;;;5013230;28;20363;-74
2022/02/28 10:29:32;;;;;;;16.93;12.10;;;6.50;99.90;;;;;;5011997;28;20364;-74
2022/02/28 10:32:02;;;;;;;16.23;10.53;;;7.10;99.90;;;;;;5008964;28;20033;-75
2022/02/28 10:34:30;;;;;;;22.33;11.03;;;7.00;99.90;;;;;;4998020;28;20022;-75
2022/02/28 10:36:58;;;;;;;15.20;10.57;;;6.80;99.90;;;;;;5015595;28;20021;-76
2022/02/28 10:39:34;;;;;;;18.87;11.03;;;7.20;99.90;;;;;;4996228;28;20356;-75
2022/02/28 10:42:10;;;;;;;17.47;11.17;;;7.30;99.90;;;;;;5005766;28;20018;-75
2022/02/28 10:44:36;;;;;;;14.37;10.03;;;7.40;99.90;;;;;;4997832;28;20492;-74
2022/02/28 10:47:04;;;;;;;20.10;10.07;;;7.30;97.30;;;;;;4998319;28;20022;-75
2022/02/28 10:49:33;;;;;;;13.30;8.20;;;7.40;95.90;;;;;;5015628;28;20030;-75
2022/02/28 10:52:00;;;;;;;15.80;9.50;;;7.40;96.10;;;;;;4999136;28;20019;-75
2022/02/28 10:54:34;;;;;;;14.65;9.75;;;8.10;96.00;;;;;;4995936;28;20037;-75
2022/02/28 10:57:07;;;;;;;13.65;9.65;;;8.10;95.30;;;;;;4995936;28;20443;-75
2022/02/28 10:59:46;;;;;;;12.95;8.70;;;8.30;93.80;;;;;;5014103;28;20026;-76
2022/02/28 11:02:32;;;;;;;14.63;8.70;;;8.40;93.20;;;;;;5012327;28;20030;-71
2022/02/28 11:05:17;;;;;;;15.43;8.75;;;8.50;91.70;;;;;;5014106;28;20024;-75
2022/02/28 11:07:53;;;;;;;19.08;9.82;;;8.60;91.50;;;;;;5013749;28;20029;-76
2022/02/28 11:10:19;;;;;;;;;;;8.90;91.30;;;;;;5014826;28;20091;-76
2022/02/28 11:12:46;;;;;;;12.32;8.90;;;8.80;92.10;;;;;;5021014;28;19971;-76
2022/02/28 11:15:15;;;;;;;13.90;9.40;;;9.10;92.30;;;;;;5020830;28;20128;-76
2022/02/28 11:17:43;;;;;;;15.13;9.40;;;9.30;90.10;;;;;;5023962;28;20022;-76
2022/02/28 11:20:12;;;;;;;14.60;9.30;;;8.90;91.00;;;;;;5020180;28;20152;-81
2022/02/28 11:22:39;;;;;;;13.25;8.90;;;9.10;90.00;;;;;;5021991;28;20147;-75
2022/02/28 11:25:10;;;;;;;14.02;9.57;;;9.40;90.40;;;;;;5019963;28;20092;-75
2022/02/28 11:27:37;;;;;;;13.75;8.98;;;9.20;90.20;;;;;;5020843;28;20109;-75
2022/02/28 11:30:10;;;;;;;13.50;8.90;;;9.30;89.30;;;;;;5015009;28;20479;-75
2022/02/28 11:32:36;;;;;;;13.10;9.00;;;9.50;87.00;;;;;;5014760;28;20038;-75
2022/02/28 11:35:39;;;;;;;13.67;9.43;;;9.40;86.30;;;;;;5016636;28;20026;-74
2022/02/28 11:38:25;;;;;;;14.97;8.97;;;9.20;84.50;;;;;;5014924;28;20018;-75
2022/02/28 11:40:57;;;;;;;15.80;8.83;;;9.10;85.90;;;;;;5001092;28;20053;-75
2022/02/28 11:43:24;;;;;;;12.70;8.80;;;8.90;88.90;;;;;;5014983;28;20370;-75
2022/02/28 11:45:59;;;;;;;12.53;8.50;;;9.00;86.10;;;;;;5014995;28;20024;-75
2022/02/28 11:48:35;;;;;;;13.98;8.75;;;9.30;85.50;;;;;;5014686;28;20034;-75
2022/02/28 11:51:03;;;;;;;12.07;8.80;;;9.20;82.20;;;;;;5014642;28;20029;-75
2022/02/28 11:53:47;;;;;;;14.43;8.77;;;9.10;84.20;;;;;;5014460;28;20048;-75
2022/02/28 11:56:18;;;;;;;12.93;9.23;;;9.00;85.70;;;;;;5014459;28;20378;-75
2022/02/28 11:58:59;;;;;;;14.67;9.73;;;9.10;83.60;;;;;;4997164;28;20073;-76
2022/02/28 12:01:37;;;;;;;13.80;8.77;;;9.10;85.90;;;;;;5014633;28;20025;-75
2022/02/28 12:04:17;;;;;;;15.40;9.20;;;9.20;84.20;;;;;;5014346;28;20033;-75
2022/02/28 12:07:02;;;;;;;13.43;9.03;;;9.50;83.40;;;;;;4996641;28;20065;-75
2022/02/28 12:09:37;;;;;;;14.40;8.93;;;9.50;82.40;;;;;;5014731;28;20030;-76
2022/02/28 12:12:27;;;;;;;13.30;9.65;;;9.50;83.00;;;;;;4996618;28;20072;-75
2022/02/28 12:15:02;;;;;;;16.10;9.48;;;9.60;82.40;;;;;;5013181;28;20463;-75
2022/02/28 12:17:34;;;;;;;15.18;10.30;;;9.60;81.50;;;;;;4994558;28;20471;-76
2022/02/28 12:20:24;;;;;;;16.65;10.50;;;9.80;81.70;;;;;;4977461;28;20364;-75
2022/02/28 12:22:52;;;;;;;18.55;10.20;;;9.60;81.30;;;;;;4994689;28;20065;-75
2022/02/28 12:25:39;;;;;;;17.15;9.75;;;9.40;83.40;;;;;;4994325;28;20384;-75
2022/02/28 12:28:24;;;;;;;14.32;9.50;;;10.00;81.00;;;;;;4994112;28;20056;-75
2022/02/28 12:30:52;;;;;;;14.68;10.23;;;9.80;80.80;;;;;;4994760;28;20030;-75